createdAt,value
2022-10-19T00:00:05.230Z,102193.03
2022-10-19T00:05:07.464Z,102185.09
2022-10-19T00:10:09.608Z,102182.47
2022-10-19T00:15:11.562Z,102184.03
2022-10-19T00:20:13.462Z,102175.28
2022-10-19T00:25:15.582Z,102161.06
2022-10-19T00:30:17.925Z,102160.97
2022-10-19T00:35:19.882Z,102161.97
2022-10-19T00:40:22.065Z,102168.06
2022-10-19T00:45:24.063Z,102160.97
2022-10-19T00:50:25.858Z,102169.19
2022-10-19T00:55:27.759Z,102170.91
2022-10-19T01:00:30.104Z,102171.56
2022-10-19T01:05:34.108Z,102173.41
2022-10-19T01:10:52.572Z,102164.53
2022-10-19T01:16:03.439Z,102151.41
2022-10-19T01:21:18.739Z,102144.16
2022-10-19T01:26:49.609Z,102132.88
2022-10-19T01:32:01.517Z,102130.09
2022-10-19T01:37:26.078Z,102125.63
2022-10-19T01:42:37.764Z,102131.75
2022-10-19T01:47:49.076Z,102127.47
2022-10-19T01:52:53.752Z,102132.59
2022-10-19T01:58:11.998Z,102127.22
2022-10-19T02:03:15.211Z,102112.31
2022-10-19T02:08:23.922Z,102109.66
2022-10-19T02:13:27.953Z,102101.78
2022-10-19T02:18:39.808Z,102099.09
2022-10-19T02:23:41.562Z,102085.56
2022-10-19T02:28:43.461Z,102087.56
2022-10-19T02:33:45.454Z,102091.78
2022-10-19T02:38:47.185Z,102086.44
2022-10-19T02:43:53.120Z,102082.94
2022-10-19T02:48:57.213Z,102072.56
2022-10-19T02:54:02.604Z,102075.09
2022-10-19T02:59:06.857Z,102075.22
2022-10-19T03:04:08.708Z,102067.94
2022-10-19T03:09:10.780Z,102074.84
2022-10-19T03:14:12.659Z,102062.78
2022-10-19T03:19:14.400Z,102067.22
2022-10-19T03:24:16.467Z,102061.38
2022-10-19T03:29:18.402Z,102058.13
2022-10-19T03:34:20.187Z,102061.59
2022-10-19T03:39:21.954Z,102060.72
2022-10-19T03:44:23.573Z,102057.16
2022-10-19T03:49:25.349Z,102057.41
2022-10-19T03:59:40.397Z,102058.25
2022-10-19T04:04:42.158Z,102045.84
2022-10-19T04:09:43.975Z,102051.13
2022-10-19T04:14:57.007Z,102051.31
2022-10-19T04:19:59.480Z,102049.31
2022-10-19T04:25:01.430Z,102051.19
2022-10-19T04:30:03.548Z,102053.72
2022-10-19T04:35:06.056Z,102051.19
2022-10-19T04:40:14.187Z,102056.59
2022-10-19T04:45:17.219Z,102067.31
2022-10-19T04:50:18.979Z,102065.50
2022-10-19T04:55:21.011Z,102057.59
2022-10-19T05:00:22.917Z,102053.88
2022-10-19T05:05:26.783Z,102065.59
2022-10-19T05:10:30.016Z,102059.25
2022-10-19T05:15:32.342Z,102045.09
2022-10-19T05:20:34.203Z,102044.34
2022-10-19T05:25:36.075Z,102037.16
2022-10-19T05:30:39.584Z,102028.22
2022-10-19T05:35:41.745Z,102024.81
2022-10-19T05:40:50.271Z,102027.47
2022-10-19T05:45:54.761Z,102034.53
2022-10-19T05:50:57.538Z,102036.41
2022-10-19T05:56:01.392Z,102031.25
2022-10-19T06:01:03.509Z,102018.53
2022-10-19T06:06:06.950Z,102010.59
2022-10-19T06:11:11.830Z,102002.59
2022-10-19T06:16:16.324Z,102010.97
2022-10-19T06:21:20.502Z,102007.91
2022-10-19T06:26:23.735Z,102011.16
2022-10-19T06:31:25.531Z,102015.03
2022-10-19T06:36:30.350Z,102007.38
2022-10-19T06:41:32.581Z,102018.72
2022-10-19T06:46:36.060Z,102024.53
2022-10-19T06:51:37.770Z,102034.75
2022-10-19T06:56:39.528Z,102027.72
2022-10-19T07:01:41.285Z,102031.34
2022-10-19T07:06:43.112Z,102042.81
2022-10-19T07:11:46.115Z,102036.78
2022-10-19T07:16:50.288Z,102040.38
2022-10-19T07:21:53.169Z,102042.28
2022-10-19T07:26:59.598Z,102043.97
2022-10-19T07:32:03.543Z,102031.44
2022-10-19T07:37:05.319Z,102022.44
2022-10-19T07:42:07.704Z,102017.53
2022-10-19T07:47:10.763Z,102009.53
2022-10-19T07:52:12.727Z,102004.75
2022-10-19T07:57:15.760Z,102004.81
2022-10-19T08:02:18.564Z,101994.13
2022-10-19T08:07:23.365Z,101998.66
2022-10-19T08:12:25.766Z,102002.16
2022-10-19T08:17:27.762Z,102003.66
2022-10-19T08:22:29.852Z,102008.19
2022-10-19T08:27:33.496Z,102000.03
2022-10-19T08:32:35.592Z,101986.03
2022-10-19T08:37:44.864Z,101988.88
2022-10-19T08:43:02.913Z,101982.91
2022-10-19T08:48:20.610Z,101987.75
2022-10-19T08:53:51.706Z,101981.44
2022-10-19T08:58:58.685Z,101967.66
2022-10-19T09:04:15.254Z,101963.91
2022-10-19T09:09:18.917Z,101964.13
2022-10-19T09:14:31.909Z,101957.97
2022-10-19T09:19:35.609Z,101954.31
2022-10-19T09:24:41.178Z,101959.88
2022-10-19T09:29:46.415Z,101953.50
2022-10-19T09:34:55.837Z,101964.16
2022-10-19T09:39:57.569Z,101953.19
2022-10-19T09:45:02.165Z,101950.53
2022-10-19T09:50:09.904Z,101956.97
2022-10-19T09:55:16.588Z,101963.06
2022-10-19T10:00:20.732Z,101964.06
2022-10-19T10:05:32.651Z,101957.59
2022-10-19T10:10:43.115Z,101951.34
2022-10-19T10:15:49.713Z,101947.97
2022-10-19T10:21:14.577Z,101949.03
2022-10-19T10:26:20.974Z,101939.84
2022-10-19T10:31:29.817Z,101921.22
2022-10-19T10:36:32.824Z,101923.03
2022-10-19T10:41:45.197Z,101930.91
2022-10-19T10:47:06.919Z,101926.72
2022-10-19T10:52:20.297Z,101916.56
2022-10-19T11:02:50.875Z,101917.34
2022-10-19T11:08:06.322Z,101904.41
2022-10-19T11:13:18.816Z,101895.59
2022-10-19T11:18:48.231Z,101873.41
2022-10-19T11:24:10.664Z,101868.25
2022-10-19T11:29:37.438Z,101852.66
2022-10-19T11:35:23.465Z,101836.91
2022-10-19T11:40:45.857Z,101817.38
2022-10-19T11:46:12.360Z,101817.38
2022-10-19T11:51:42.129Z,101794.09
2022-10-19T11:57:33.606Z,101788.81
2022-10-19T12:03:06.868Z,101784.41
2022-10-19T12:08:14.667Z,101781.81
2022-10-19T12:13:23.406Z,101756.00
2022-10-19T12:18:45.041Z,101768.38
2022-10-19T12:23:48.505Z,101758.50
2022-10-19T12:28:55.961Z,101747.19
2022-10-19T12:34:08.247Z,101748.13
2022-10-19T12:39:11.452Z,101733.91
2022-10-19T12:44:16.439Z,101722.16
2022-10-19T12:49:28.698Z,101708.03
2022-10-19T12:54:34.294Z,101709.56
2022-10-19T12:59:37.540Z,101694.84
2022-10-19T13:04:39.476Z,101696.22
2022-10-19T13:09:44.326Z,101697.25
2022-10-19T13:14:55.246Z,101690.16
2022-10-19T13:20:16.801Z,101682.50
2022-10-19T13:25:40.290Z,101662.34
2022-10-19T13:30:45.333Z,101673.06
2022-10-19T13:35:47.958Z,101660.81
2022-10-19T13:40:52.250Z,101643.16
2022-10-19T13:46:22.703Z,101636.84
2022-10-19T13:51:46.307Z,101641.78
2022-10-19T13:57:10.037Z,101622.66
2022-10-19T14:02:38.096Z,101632.19
2022-10-19T14:07:57.022Z,101632.25
2022-10-19T14:12:59.525Z,101628.16
2022-10-19T14:18:03.786Z,101617.91
2022-10-19T14:23:35.614Z,101626.91
2022-10-19T14:28:38.731Z,101600.53
2022-10-19T14:33:45.503Z,101610.13
2022-10-19T14:38:49.941Z,101602.84
2022-10-19T14:43:51.588Z,101597.63
2022-10-19T14:49:00.471Z,101577.25
2022-10-19T14:54:31.497Z,101579.13
2022-10-19T14:59:46.633Z,101576.38
2022-10-19T15:04:53.508Z,101569.31
2022-10-19T15:10:03.126Z,101570.16
2022-10-19T15:15:11.716Z,101563.97
2022-10-19T15:20:43.805Z,101564.97
2022-10-19T15:26:03.267Z,101560.28
2022-10-19T15:31:26.911Z,101555.16
2022-10-19T15:36:33.060Z,101548.03
2022-10-19T15:41:37.926Z,101535.41
2022-10-19T15:47:15.353Z,101533.88
2022-10-19T15:52:19.626Z,101526.19
2022-10-19T15:57:35.034Z,101511.63
2022-10-19T16:02:37.192Z,101498.22
2022-10-19T16:07:40.994Z,101491.06
2022-10-19T16:12:46.380Z,101472.03
2022-10-19T16:17:52.375Z,101465.19
2022-10-19T16:22:54.172Z,101456.47
2022-10-19T16:27:55.851Z,101451.69
2022-10-19T16:33:01.089Z,101444.78
2022-10-19T16:38:05.981Z,101443.13
2022-10-19T16:43:07.897Z,101436.94
2022-10-19T16:48:12.172Z,101434.19
2022-10-19T16:53:14.391Z,101435.53
2022-10-19T16:58:16.216Z,101430.34
2022-10-19T17:03:18.309Z,101424.22
2022-10-19T17:08:21.612Z,101419.97
2022-10-19T17:13:23.677Z,101436.75
2022-10-19T17:18:25.354Z,101426.81
2022-10-19T17:23:27.153Z,101420.63
2022-10-19T17:28:29.307Z,101409.47
2022-10-19T17:33:31.693Z,101392.44
2022-10-19T17:38:33.989Z,101393.00
2022-10-19T17:43:39.553Z,101395.09
2022-10-19T17:48:43.409Z,101395.09
2022-10-19T17:53:47.872Z,101401.69
2022-10-19T17:58:53.006Z,101406.00
2022-10-19T18:03:55.299Z,101404.97
2022-10-19T18:08:58.678Z,101419.34
2022-10-19T18:14:01.579Z,101422.81
2022-10-19T18:19:05.303Z,101405.53
2022-10-19T18:24:12.729Z,101388.13
2022-10-19T18:29:20.620Z,101376.50
2022-10-19T18:34:29.357Z,101383.41
2022-10-19T18:39:31.277Z,101383.66
2022-10-19T18:44:33.783Z,101368.13
2022-10-19T18:49:35.986Z,101360.34
2022-10-19T18:54:37.848Z,101368.19
2022-10-19T18:59:39.620Z,101378.06
2022-10-19T19:04:41.514Z,101365.81
2022-10-19T19:09:43.968Z,101351.41
2022-10-19T19:14:46.270Z,101329.50
2022-10-19T19:19:49.511Z,101321.19
2022-10-19T19:24:51.393Z,101313.25
2022-10-19T19:29:57.949Z,101299.25
2022-10-19T19:34:59.813Z,101277.47
2022-10-19T19:40:01.744Z,101269.66
2022-10-19T19:45:03.780Z,101258.91
2022-10-19T19:50:06.046Z,101261.00
2022-10-19T19:55:09.305Z,101250.19
2022-10-19T20:00:11.765Z,101246.75
2022-10-19T20:05:13.561Z,101236.78
2022-10-19T20:10:17.604Z,101229.63
2022-10-19T20:15:19.534Z,101239.59
2022-10-19T20:20:22.503Z,101243.28
2022-10-19T20:25:24.384Z,101237.09
2022-10-19T20:30:26.278Z,101226.25
2022-10-19T20:35:28.213Z,101218.34
2022-10-19T20:45:51.750Z,101221.63
2022-10-19T20:50:53.718Z,101221.72
2022-10-19T20:55:55.487Z,101220.84
2022-10-19T21:00:57.442Z,101220.94
2022-10-19T21:06:03.027Z,101221.78
2022-10-19T21:11:24.014Z,101224.56
2022-10-19T21:16:27.816Z,101215.66
2022-10-19T21:21:32.921Z,101213.78
2022-10-19T21:26:36.377Z,101211.13
2022-10-19T21:31:43.005Z,101198.56
2022-10-19T21:36:47.375Z,101198.72
2022-10-19T21:41:49.407Z,101180.06
2022-10-19T21:46:51.490Z,101174.78
2022-10-19T21:51:55.018Z,101163.09
2022-10-19T21:56:58.639Z,101156.75
2022-10-19T22:02:03.447Z,101145.31
2022-10-19T22:07:05.468Z,101144.34
2022-10-19T22:12:07.291Z,101140.06
2022-10-19T22:17:09.203Z,101137.19
2022-10-19T22:22:11.255Z,101126.09
2022-10-19T22:27:13.096Z,101123.00
2022-10-19T22:32:15.067Z,101107.19
2022-10-19T22:37:16.815Z,101101.94
2022-10-19T22:43:14.883Z,101086.84
2022-10-19T22:48:18.097Z,101091.06
2022-10-19T22:53:20.216Z,101081.53
2022-10-19T22:58:22.101Z,101068.19
2022-10-19T23:03:24.179Z,101063.09
2022-10-19T23:08:26.312Z,101051.16
2022-10-19T23:13:28.389Z,101052.09
2022-10-19T23:18:34.567Z,101059.41
2022-10-19T23:23:37.372Z,101053.91
2022-10-19T23:28:41.136Z,101052.97
2022-10-19T23:33:44.018Z,101048.31
2022-10-19T23:38:46.917Z,101038.69
2022-10-19T23:43:49.284Z,101011.94
2022-10-19T23:48:51.237Z,101011.41
2022-10-19T23:53:53.596Z,101002.38
2022-10-19T23:58:55.955Z,101000.72
